RJAK(METAR)
08/13 14:00
METAR RJAK 130500Z VRB02KT 9999 FEW040 SCT110 BKN250 36/22 Q1007 RMK
2CU040 4AC110 6CI250 A2975=
戻る
トップページへ戻る
IMOC Co,.Ltd.